A- A+ FrançaisEnglishEspañol中国

le plus proche LFBT Tarbes-Lourdes-PyrénéesLFBF Toulouse-FrancazalLFCL Toulouse-Lasbordes LFIT Toulouse-Bourg-St-Bernard

manche à air

La météo aéronautique pour les pilotes, la préparation du vol avec les METAR (METeorological Aerodrome Report, message d'observation des conditions météorologiques pour l'aviation) et Les TAF (Terminal Aerodrome Forecast : message de prévision à court terme des conditions météorologiques pour l'aviation). Et les autres ressources comme les VAC (Visual Approch Chart) et les NOTAM (Notice To Airman) pour préprer les vols.

Aéroport Rankin Inlet (Canada) / OACI CYRT/ IATA YRT

L'altitude de l'aéroport Rankin Inlet est de 29 m=95 ft. Il est situé à proximité de Rankin Inlet (Canada). La météo générale à 5 jours est disponible pour Rankin Inlet situé à 1.8 km.

METAR de l'aéroport Rankin Inlet - CYRT

CYRT 071400Z 32015KT 15SM IC SKC M32/M36 A2986 RMK SLP118

Décodage du METAR de l'aéroport Rankin Inlet (CA)

METAR émis par CYRT le mardi 7 janvier 2020 à 14:00 heure TU. Attention ce METAR est obsolète car il a été émis il y a 4 heure et 31 minutes.

La visibilité est de 24.1 km=15 sm.

La température est de -32°C=-26 °F et le point rosée est de -36°C=-33 °F . Ce qui correspond à 68% d'humidité relative.

Le QNH est de 1011 hPa=29.85 inHg

Vent de 15 kt=28 km/h, orienté à 320°.

Pas de nuages.

IC

RMK SLP118

TAF de l'aéroport Rankin Inlet - CYRT

CYRT 071138Z 0712/0724 33017KT P6SM SKC TEMPO 0712/0718 5SM IC BLSN FM071800 33017G27KT P6SM SCT020 BKN040 TEMPO 0718/0724 3SM -SN IC BLSN BKN020 RMK NXT FCST BY 071800Z

CYRT 071138Z 0712/0724 33017KT P6SM ciel dégagé temporairement 0712/0718 5SM cristaux de glace BLSN FM071800 33017G27KT P6SM nuages épars à 020 couverture nuageuse fragmentée à 040 temporairement 0718/0724 3SM faible SN cristaux de glace BLSN couverture nuageuse fragmentée à 020 remarques NXT trombe ST BY 071800Z

Aéroport à proximité de Rankin Inlet

Météo générale à 5 jours à Rankin Inlet (1.8 km)CYXN Aéroport Whale Cove (68 km)CYCS Aéroport Chesterfield Inlet (92 km)CYEK Aéroport Arviat (217 km)CYBK Aéroport Baker Lake (257 km)CYZS Aéroport Coral Harbour (460 km)CYYQ Aéroport Churchill (465 km)

Vue aérienne de l'aéroport Rankin Inlet

NOTAM de l'aéroport Rankin Inlet

Les NOTAM sont fournis sans aucune garantie de leur actualité. Le pilote est le seul responsable de la vérification de sa validité avant de l'utiliser opérationnellement pour préparer un vol ou l'utiliser lors de sa navigation.

NOTAM VOR/DME (à partir du vendredi 13 décembre 2019 à 14:38 jusqu'au jeudi 30 janvier 2020 à 23:59)

L1199/19 NOTAMR L1155/19
Q) CZEG/QNMXX/IV/BO/AE/000/999/6249N09207W025
A) CYRT B) 1912131438 C) 2001292359
E) RANKIN INLET VOR/DME YRT 112.4MHZ/CH71X UNMONITORED
CREATED: 13 Dec 2019 14:38:00
SOURCE: CYHQYNYX

Sources des données